Riverton, Mississippi
Current Conditions -  °F | °C
As of 2:35 AM on Monday 26 Jan 2015 (Local Time) from KCKM Reporting Station
Overcast Overcast  
Wind Chill: 33°   Ceiling: 2800
Heat Index: 41°   Visibility: 10mi
Dew Point: 34°   Wind: 16mph
Humidity: 76%   Direction: 320°NW
Pressure: 30.04"   Gusts: 23mph
Location:  34.1809°N, 90.6118°W
Report Text: KCKM 260835Z AUTO 32014G20KT 10SM OVC028 05/01 A3004 RMK AO1
Loading
Personal Weather Stations






























Interactive Weather Map New forecast layout! Learn more

10-Day Weather Forecast

Advertisements
Track Severe Weather on mobile